sensor_id;sensor_type;location;lat;lon;timestamp;P1;durP1;ratioP1;P2;durP2;ratioP2
27495;SDS011;14929;51.336;9.416;2023-03-24T00:01:06;1.88;;;1.77;;
27495;SDS011;14929;51.336;9.416;2023-03-24T00:03:34;1.52;;;1.42;;
27495;SDS011;14929;51.336;9.416;2023-03-24T00:06:02;1.70;;;1.60;;
27495;SDS011;14929;51.336;9.416;2023-03-24T00:08:35;1.60;;;1.50;;
27495;SDS011;14929;51.336;9.416;2023-03-24T00:11:04;2.35;;;2.20;;
27495;SDS011;14929;51.336;9.416;2023-03-24T00:13:36;2.05;;;1.90;;
27495;SDS011;14929;51.336;9.416;2023-03-24T00:16:05;1.98;;;1.88;;
27495;SDS011;14929;51.336;9.416;2023-03-24T00:18:36;1.67;;;1.50;;
27495;SDS011;14929;51.336;9.416;2023-03-24T00:21:05;1.85;;;1.75;;
27495;SDS011;14929;51.336;9.416;2023-03-24T00:23:37;1.77;;;1.65;;
27495;SDS011;14929;51.336;9.416;2023-03-24T00:26:07;1.70;;;1.60;;
27495;SDS011;14929;51.336;9.416;2023-03-24T00:28:39;2.28;;;2.00;;
27495;SDS011;14929;51.336;9.416;2023-03-24T00:31:09;2.42;;;2.22;;
27495;SDS011;14929;51.336;9.416;2023-03-24T00:33:39;2.63;;;2.30;;
27495;SDS011;14929;51.336;9.416;2023-03-24T00:36:09;4.57;;;3.05;;
27495;SDS011;14929;51.336;9.416;2023-03-24T00:38:39;3.67;;;3.10;;
27495;SDS011;14929;51.336;9.416;2023-03-24T00:41:08;2.03;;;1.83;;
27495;SDS011;14929;51.336;9.416;2023-03-24T00:43:36;2.00;;;1.83;;
27495;SDS011;14929;51.336;9.416;2023-03-24T00:46:04;1.90;;;1.80;;
27495;SDS011;14929;51.336;9.416;2023-03-24T00:48:35;2.20;;;2.00;;
27495;SDS011;14929;51.336;9.416;2023-03-24T00:51:06;2.28;;;2.08;;
27495;SDS011;14929;51.336;9.416;2023-03-24T00:53:35;2.05;;;1.95;;
27495;SDS011;14929;51.336;9.416;2023-03-24T00:56:09;2.10;;;2.00;;
27495;SDS011;14929;51.336;9.416;2023-03-24T00:58:39;2.15;;;1.95;;
27495;SDS011;14929;51.336;9.416;2023-03-24T01:01:07;2.22;;;1.45;;
27495;SDS011;14929;51.336;9.416;2023-03-24T01:03:34;2.00;;;1.90;;
27495;SDS011;14929;51.336;9.416;2023-03-24T01:06:12;1.90;;;1.80;;
27495;SDS011;14929;51.336;9.416;2023-03-24T01:08:40;1.92;;;1.83;;
27495;SDS011;14929;51.336;9.416;2023-03-24T01:11:09;2.38;;;2.28;;
27495;SDS011;14929;51.336;9.416;2023-03-24T01:13:37;2.33;;;1.73;;
27495;SDS011;14929;51.336;9.416;2023-03-24T01:16:06;2.03;;;1.83;;
27495;SDS011;14929;51.336;9.416;2023-03-24T01:18:34;2.10;;;2.00;;
27495;SDS011;14929;51.336;9.416;2023-03-24T01:21:05;1.95;;;1.80;;
27495;SDS011;14929;51.336;9.416;2023-03-24T01:23:33;2.95;;;2.70;;
27495;SDS011;14929;51.336;9.416;2023-03-24T01:26:03;2.00;;;1.90;;
27495;SDS011;14929;51.336;9.416;2023-03-24T01:28:34;1.95;;;1.80;;
27495;SDS011;14929;51.336;9.416;2023-03-24T01:31:05;2.67;;;2.47;;
27495;SDS011;14929;51.336;9.416;2023-03-24T01:33:34;1.90;;;1.70;;
27495;SDS011;14929;51.336;9.416;2023-03-24T01:36:03;3.15;;;2.67;;
27495;SDS011;14929;51.336;9.416;2023-03-24T01:38:32;2.05;;;1.95;;
27495;SDS011;14929;51.336;9.416;2023-03-24T01:40:59;2.47;;;2.28;;
27495;SDS011;14929;51.336;9.416;2023-03-24T01:43:29;2.40;;;2.20;;
27495;SDS011;14929;51.336;9.416;2023-03-24T01:46:11;2.53;;;2.38;;
27495;SDS011;14929;51.336;9.416;2023-03-24T01:48:43;2.20;;;2.10;;
27495;SDS011;14929;51.336;9.416;2023-03-24T01:51:17;2.20;;;2.10;;
27495;SDS011;14929;51.336;9.416;2023-03-24T01:53:48;1.95;;;1.83;;
27495;SDS011;14929;51.336;9.416;2023-03-24T01:56:20;3.00;;;2.60;;
27495;SDS011;14929;51.336;9.416;2023-03-24T01:58:49;3.03;;;2.40;;
27495;SDS011;14929;51.336;9.416;2023-03-24T02:01:22;2.50;;;2.30;;
27495;SDS011;14929;51.336;9.416;2023-03-24T02:03:54;2.40;;;2.20;;
27495;SDS011;14929;51.336;9.416;2023-03-24T02:06:22;2.50;;;2.30;;
27495;SDS011;14929;51.336;9.416;2023-03-24T02:08:51;2.60;;;2.40;;
27495;SDS011;14929;51.336;9.416;2023-03-24T02:11:21;2.70;;;2.50;;
27495;SDS011;14929;51.336;9.416;2023-03-24T02:13:50;2.80;;;2.60;;
27495;SDS011;14929;51.336;9.416;2023-03-24T02:16:22;2.70;;;2.50;;
27495;SDS011;14929;51.336;9.416;2023-03-24T02:19:23;2.20;;;2.10;;
27495;SDS011;14929;51.336;9.416;2023-03-24T02:29:02;2.00;;;1.80;;
27495;SDS011;14929;51.336;9.416;2023-03-24T02:32:19;2.90;;;2.70;;
27495;SDS011;14929;51.336;9.416;2023-03-24T02:35:22;3.15;;;2.85;;
27495;SDS011;14929;51.336;9.416;2023-03-24T02:41:23;2.65;;;2.45;;
27495;SDS011;14929;51.336;9.416;2023-03-24T02:43:55;2.95;;;2.67;;
27495;SDS011;14929;51.336;9.416;2023-03-24T02:46:30;2.88;;;2.67;;
27495;SDS011;14929;51.336;9.416;2023-03-24T02:49:09;2.42;;;2.22;;
27495;SDS011;14929;51.336;9.416;2023-03-24T02:51:48;3.10;;;2.80;;
27495;SDS011;14929;51.336;9.416;2023-03-24T02:54:21;2.65;;;2.45;;
27495;SDS011;14929;51.336;9.416;2023-03-24T02:56:59;3.88;;;2.72;;
27495;SDS011;14929;51.336;9.416;2023-03-24T02:59:31;3.72;;;3.33;;
27495;SDS011;14929;51.336;9.416;2023-03-24T03:02:02;2.42;;;2.20;;
27495;SDS011;14929;51.336;9.416;2023-03-24T03:04:35;2.80;;;2.60;;
27495;SDS011;14929;51.336;9.416;2023-03-24T03:07:10;3.08;;;2.60;;
27495;SDS011;14929;51.336;9.416;2023-03-24T03:09:42;3.63;;;2.95;;
27495;SDS011;14929;51.336;9.416;2023-03-24T03:12:16;3.13;;;2.92;;
27495;SDS011;14929;51.336;9.416;2023-03-24T03:14:44;3.10;;;2.90;;
27495;SDS011;14929;51.336;9.416;2023-03-24T03:17:16;3.10;;;2.90;;
27495;SDS011;14929;51.336;9.416;2023-03-24T03:19:46;3.10;;;2.83;;
27495;SDS011;14929;51.336;9.416;2023-03-24T03:22:17;3.05;;;2.75;;
27495;SDS011;14929;51.336;9.416;2023-03-24T03:24:48;3.38;;;3.08;;
27495;SDS011;14929;51.336;9.416;2023-03-24T03:27:21;2.83;;;2.63;;
27495;SDS011;14929;51.336;9.416;2023-03-24T03:29:52;2.80;;;2.60;;
27495;SDS011;14929;51.336;9.416;2023-03-24T03:32:25;3.38;;;3.08;;
27495;SDS011;14929;51.336;9.416;2023-03-24T03:34:55;5.57;;;2.80;;
27495;SDS011;14929;51.336;9.416;2023-03-24T03:37:26;4.10;;;3.08;;
27495;SDS011;14929;51.336;9.416;2023-03-24T03:39:58;2.90;;;2.70;;
27495;SDS011;14929;51.336;9.416;2023-03-24T03:42:31;5.30;;;2.45;;
27495;SDS011;14929;51.336;9.416;2023-03-24T03:44:59;3.10;;;2.83;;
27495;SDS011;14929;51.336;9.416;2023-03-24T03:47:26;3.25;;;2.88;;
27495;SDS011;14929;51.336;9.416;2023-03-24T03:49:54;3.50;;;3.20;;
27495;SDS011;14929;51.336;9.416;2023-03-24T03:52:22;2.65;;;2.45;;
27495;SDS011;14929;51.336;9.416;2023-03-24T03:54:50;3.17;;;2.88;;
27495;SDS011;14929;51.336;9.416;2023-03-24T03:57:18;3.45;;;3.15;;
27495;SDS011;14929;51.336;9.416;2023-03-24T03:59:47;3.47;;;2.40;;
27495;SDS011;14929;51.336;9.416;2023-03-24T04:02:20;4.38;;;3.10;;
27495;SDS011;14929;51.336;9.416;2023-03-24T04:05:05;2.65;;;2.45;;
27495;SDS011;14929;51.336;9.416;2023-03-24T04:10:48;3.00;;;2.70;;
27495;SDS011;14929;51.336;9.416;2023-03-24T04:13:43;2.55;;;2.35;;
27495;SDS011;14929;51.336;9.416;2023-03-24T04:16:20;2.88;;;2.63;;
27495;SDS011;14929;51.336;9.416;2023-03-24T04:19:01;2.58;;;2.38;;
27495;SDS011;14929;51.336;9.416;2023-03-24T04:21:40;2.33;;;2.20;;
27495;SDS011;14929;51.336;9.416;2023-03-24T04:24:18;2.75;;;2.55;;
27495;SDS011;14929;51.336;9.416;2023-03-24T04:26:57;3.22;;;2.60;;
27495;SDS011;14929;51.336;9.416;2023-03-24T04:29:34;3.47;;;2.42;;
27495;SDS011;14929;51.336;9.416;2023-03-24T04:32:10;2.20;;;2.10;;
27495;SDS011;14929;51.336;9.416;2023-03-24T04:34:44;2.58;;;2.38;;
27495;SDS011;14929;51.336;9.416;2023-03-24T04:37:15;2.00;;;1.90;;
27495;SDS011;14929;51.336;9.416;2023-03-24T04:39:46;1.92;;;1.77;;
27495;SDS011;14929;51.336;9.416;2023-03-24T04:42:16;1.70;;;1.60;;
27495;SDS011;14929;51.336;9.416;2023-03-24T04:44:47;2.10;;;1.90;;
27495;SDS011;14929;51.336;9.416;2023-03-24T04:47:17;2.03;;;1.90;;
27495;SDS011;14929;51.336;9.416;2023-03-24T04:49:46;2.35;;;2.15;;
27495;SDS011;14929;51.336;9.416;2023-03-24T04:52:14;2.78;;;2.40;;
27495;SDS011;14929;51.336;9.416;2023-03-24T04:54:42;2.83;;;2.35;;
27495;SDS011;14929;51.336;9.416;2023-03-24T04:57:09;2.00;;;1.90;;
27495;SDS011;14929;51.336;9.416;2023-03-24T04:59:37;3.00;;;2.80;;
27495;SDS011;14929;51.336;9.416;2023-03-24T05:02:04;2.28;;;2.10;;
27495;SDS011;14929;51.336;9.416;2023-03-24T05:04:33;3.88;;;2.85;;
27495;SDS011;14929;51.336;9.416;2023-03-24T05:07:01;3.25;;;2.20;;
27495;SDS011;14929;51.336;9.416;2023-03-24T05:09:29;2.30;;;2.10;;
27495;SDS011;14929;51.336;9.416;2023-03-24T05:11:56;3.00;;;2.53;;
27495;SDS011;14929;51.336;9.416;2023-03-24T05:14:24;2.25;;;2.05;;
27495;SDS011;14929;51.336;9.416;2023-03-24T05:16:52;2.53;;;2.00;;
27495;SDS011;14929;51.336;9.416;2023-03-24T05:19:20;1.95;;;1.85;;
27495;SDS011;14929;51.336;9.416;2023-03-24T05:21:49;2.20;;;2.10;;
27495;SDS011;14929;51.336;9.416;2023-03-24T05:24:18;3.47;;;2.50;;
27495;SDS011;14929;51.336;9.416;2023-03-24T05:26:46;2.72;;;2.53;;
27495;SDS011;14929;51.336;9.416;2023-03-24T05:29:13;2.63;;;2.35;;
27495;SDS011;14929;51.336;9.416;2023-03-24T05:31:41;2.70;;;2.50;;
27495;SDS011;14929;51.336;9.416;2023-03-24T05:34:09;2.88;;;2.40;;
27495;SDS011;14929;51.336;9.416;2023-03-24T05:36:36;1.90;;;1.70;;
27495;SDS011;14929;51.336;9.416;2023-03-24T05:39:05;2.40;;;2.20;;
27495;SDS011;14929;51.336;9.416;2023-03-24T05:41:32;3.33;;;2.08;;
27495;SDS011;14929;51.336;9.416;2023-03-24T05:44:00;2.80;;;2.60;;
27495;SDS011;14929;51.336;9.416;2023-03-24T05:46:27;2.40;;;2.20;;
27495;SDS011;14929;51.336;9.416;2023-03-24T05:48:55;3.60;;;2.13;;
27495;SDS011;14929;51.336;9.416;2023-03-24T05:51:22;2.35;;;2.15;;
27495;SDS011;14929;51.336;9.416;2023-03-24T05:53:50;2.38;;;2.17;;
27495;SDS011;14929;51.336;9.416;2023-03-24T05:56:19;2.40;;;2.20;;
27495;SDS011;14929;51.336;9.416;2023-03-24T05:58:46;3.13;;;2.65;;
27495;SDS011;14929;51.336;9.416;2023-03-24T06:01:15;3.40;;;2.58;;
27495;SDS011;14929;51.336;9.416;2023-03-24T06:03:43;3.58;;;3.28;;
27495;SDS011;14929;51.336;9.416;2023-03-24T06:06:10;2.78;;;2.58;;
27495;SDS011;14929;51.336;9.416;2023-03-24T06:08:40;2.83;;;2.40;;
27495;SDS011;14929;51.336;9.416;2023-03-24T06:11:09;2.45;;;2.25;;
27495;SDS011;14929;51.336;9.416;2023-03-24T06:13:38;2.97;;;2.72;;
27495;SDS011;14929;51.336;9.416;2023-03-24T06:16:06;2.63;;;2.35;;
27495;SDS011;14929;51.336;9.416;2023-03-24T06:18:35;2.42;;;2.03;;
27495;SDS011;14929;51.336;9.416;2023-03-24T06:21:04;2.53;;;2.33;;
27495;SDS011;14929;51.336;9.416;2023-03-24T06:23:32;2.45;;;2.25;;
27495;SDS011;14929;51.336;9.416;2023-03-24T06:26:00;2.80;;;2.50;;
27495;SDS011;14929;51.336;9.416;2023-03-24T06:28:27;2.72;;;2.20;;
27495;SDS011;14929;51.336;9.416;2023-03-24T06:30:59;2.50;;;2.30;;
27495;SDS011;14929;51.336;9.416;2023-03-24T06:33:29;3.30;;;2.40;;
27495;SDS011;14929;51.336;9.416;2023-03-24T06:35:58;2.58;;;2.38;;
27495;SDS011;14929;51.336;9.416;2023-03-24T06:38:25;3.05;;;2.85;;
27495;SDS011;14929;51.336;9.416;2023-03-24T06:40:53;2.78;;;2.58;;
27495;SDS011;14929;51.336;9.416;2023-03-24T06:43:24;2.67;;;2.42;;
27495;SDS011;14929;51.336;9.416;2023-03-24T06:45:52;2.40;;;2.20;;
27495;SDS011;14929;51.336;9.416;2023-03-24T06:48:21;3.33;;;3.03;;
27495;SDS011;14929;51.336;9.416;2023-03-24T06:50:49;2.75;;;2.45;;
27495;SDS011;14929;51.336;9.416;2023-03-24T06:53:18;2.95;;;2.70;;
27495;SDS011;14929;51.336;9.416;2023-03-24T06:55:46;3.28;;;2.97;;
27495;SDS011;14929;51.336;9.416;2023-03-24T06:58:14;2.50;;;2.30;;
27495;SDS011;14929;51.336;9.416;2023-03-24T07:00:42;2.47;;;2.28;;
27495;SDS011;14929;51.336;9.416;2023-03-24T07:03:10;2.78;;;2.58;;
27495;SDS011;14929;51.336;9.416;2023-03-24T07:05:41;5.22;;;2.72;;
27495;SDS011;14929;51.336;9.416;2023-03-24T07:08:10;3.00;;;2.80;;
27495;SDS011;14929;51.336;9.416;2023-03-24T07:10:38;3.33;;;2.38;;
27495;SDS011;14929;51.336;9.416;2023-03-24T07:13:06;2.97;;;2.28;;
27495;SDS011;14929;51.336;9.416;2023-03-24T07:15:34;1.88;;;1.77;;
27495;SDS011;14929;51.336;9.416;2023-03-24T07:18:02;1.67;;;1.58;;
27495;SDS011;14929;51.336;9.416;2023-03-24T07:20:29;2.00;;;1.73;;
27495;SDS011;14929;51.336;9.416;2023-03-24T07:22:58;1.55;;;1.45;;
27495;SDS011;14929;51.336;9.416;2023-03-24T07:25:26;1.85;;;1.75;;
27495;SDS011;14929;51.336;9.416;2023-03-24T07:27:54;1.65;;;1.55;;
27495;SDS011;14929;51.336;9.416;2023-03-24T07:30:22;2.53;;;1.65;;
27495;SDS011;14929;51.336;9.416;2023-03-24T07:32:51;2.10;;;1.90;;
27495;SDS011;14929;51.336;9.416;2023-03-24T07:35:22;1.60;;;1.50;;
27495;SDS011;14929;51.336;9.416;2023-03-24T07:37:49;1.10;;;1.10;;
27495;SDS011;14929;51.336;9.416;2023-03-24T07:40:18;2.22;;;2.03;;
27495;SDS011;14929;51.336;9.416;2023-03-24T07:42:46;1.83;;;1.73;;
27495;SDS011;14929;51.336;9.416;2023-03-24T07:45:14;1.20;;;1.10;;
27495;SDS011;14929;51.336;9.416;2023-03-24T07:47:42;1.70;;;1.60;;
27495;SDS011;14929;51.336;9.416;2023-03-24T07:50:11;2.85;;;1.58;;
27495;SDS011;14929;51.336;9.416;2023-03-24T07:52:40;1.60;;;1.50;;
27495;SDS011;14929;51.336;9.416;2023-03-24T07:55:10;1.58;;;1.48;;
27495;SDS011;14929;51.336;9.416;2023-03-24T07:57:39;1.40;;;1.30;;
27495;SDS011;14929;51.336;9.416;2023-03-24T08:00:08;2.63;;;1.50;;
27495;SDS011;14929;51.336;9.416;2023-03-24T08:02:40;1.00;;;1.00;;
27495;SDS011;14929;51.336;9.416;2023-03-24T08:05:08;1.40;;;1.30;;
27495;SDS011;14929;51.336;9.416;2023-03-24T08:07:38;2.22;;;1.27;;
27495;SDS011;14929;51.336;9.416;2023-03-24T08:10:08;1.15;;;1.05;;
27495;SDS011;14929;51.336;9.416;2023-03-24T08:12:38;0.98;;;0.98;;
27495;SDS011;14929;51.336;9.416;2023-03-24T08:15:07;1.15;;;0.98;;
27495;SDS011;14929;51.336;9.416;2023-03-24T08:17:35;1.35;;;1.17;;
27495;SDS011;14929;51.336;9.416;2023-03-24T08:20:03;0.80;;;0.80;;
27495;SDS011;14929;51.336;9.416;2023-03-24T08:22:36;0.70;;;0.70;;
27495;SDS011;14929;51.336;9.416;2023-03-24T08:25:04;1.35;;;1.00;;
27495;SDS011;14929;51.336;9.416;2023-03-24T08:27:33;1.00;;;0.88;;
27495;SDS011;14929;51.336;9.416;2023-03-24T08:30:04;1.50;;;1.20;;
27495;SDS011;14929;51.336;9.416;2023-03-24T08:32:41;1.13;;;1.02;;
27495;SDS011;14929;51.336;9.416;2023-03-24T08:35:10;0.95;;;0.80;;
27495;SDS011;14929;51.336;9.416;2023-03-24T08:37:39;0.60;;;0.60;;
27495;SDS011;14929;51.336;9.416;2023-03-24T08:40:09;0.70;;;0.70;;
27495;SDS011;14929;51.336;9.416;2023-03-24T08:42:41;0.82;;;0.82;;
27495;SDS011;14929;51.336;9.416;2023-03-24T08:45:10;1.75;;;0.85;;
27495;SDS011;14929;51.336;9.416;2023-03-24T08:47:38;4.07;;;3.63;;
27495;SDS011;14929;51.336;9.416;2023-03-24T08:50:06;2.95;;;2.75;;
27495;SDS011;14929;51.336;9.416;2023-03-24T08:52:35;2.60;;;2.40;;
27495;SDS011;14929;51.336;9.416;2023-03-24T08:55:06;2.50;;;2.30;;
27495;SDS011;14929;51.336;9.416;2023-03-24T08:57:35;2.10;;;2.00;;
27495;SDS011;14929;51.336;9.416;2023-03-24T09:00:03;12.60;;;11.70;;
27495;SDS011;14929;51.336;9.416;2023-03-24T09:02:39;6.28;;;5.88;;
27495;SDS011;14929;51.336;9.416;2023-03-24T09:05:07;4.03;;;3.72;;
27495;SDS011;14929;51.336;9.416;2023-03-24T09:07:35;4.47;;;4.18;;
27495;SDS011;14929;51.336;9.416;2023-03-24T09:10:03;2.75;;;2.55;;
27495;SDS011;14929;51.336;9.416;2023-03-24T09:12:32;1.80;;;1.70;;
27495;SDS011;14929;51.336;9.416;2023-03-24T09:15:00;1.52;;;1.42;;
27495;SDS011;14929;51.336;9.416;2023-03-24T09:17:28;6.60;;;1.85;;
27495;SDS011;14929;51.336;9.416;2023-03-24T09:19:57;1.20;;;1.10;;
27495;SDS011;14929;51.336;9.416;2023-03-24T09:22:25;1.15;;;1.15;;
27495;SDS011;14929;51.336;9.416;2023-03-24T09:24:53;2.47;;;1.20;;
27495;SDS011;14929;51.336;9.416;2023-03-24T09:27:20;1.30;;;1.00;;
27495;SDS011;14929;51.336;9.416;2023-03-24T09:29:48;3.13;;;1.27;;
27495;SDS011;14929;51.336;9.416;2023-03-24T09:32:17;0.90;;;0.90;;
27495;SDS011;14929;51.336;9.416;2023-03-24T09:34:45;1.10;;;1.00;;
27495;SDS011;14929;51.336;9.416;2023-03-24T09:37:14;1.00;;;1.00;;
27495;SDS011;14929;51.336;9.416;2023-03-24T09:39:42;1.05;;;1.02;;
27495;SDS011;14929;51.336;9.416;2023-03-24T09:42:13;1.27;;;1.10;;
27495;SDS011;14929;51.336;9.416;2023-03-24T09:44:46;0.98;;;0.77;;
27495;SDS011;14929;51.336;9.416;2023-03-24T09:47:20;1.05;;;0.90;;
27495;SDS011;14929;51.336;9.416;2023-03-24T09:49:53;1.02;;;1.02;;
27495;SDS011;14929;51.336;9.416;2023-03-24T09:52:26;0.70;;;0.70;;
27495;SDS011;14929;51.336;9.416;2023-03-24T09:54:57;0.98;;;0.90;;
27495;SDS011;14929;51.336;9.416;2023-03-24T09:57:27;0.93;;;0.90;;
27495;SDS011;14929;51.336;9.416;2023-03-24T10:00:00;1.40;;;1.05;;
27495;SDS011;14929;51.336;9.416;2023-03-24T10:02:28;1.08;;;0.90;;
27495;SDS011;14929;51.336;9.416;2023-03-24T10:04:56;0.90;;;0.70;;
27495;SDS011;14929;51.336;9.416;2023-03-24T10:07:26;2.10;;;1.35;;
27495;SDS011;14929;51.336;9.416;2023-03-24T10:09:58;2.17;;;1.00;;
27495;SDS011;14929;51.336;9.416;2023-03-24T10:12:30;1.60;;;1.30;;
27495;SDS011;14929;51.336;9.416;2023-03-24T10:15:03;1.02;;;0.90;;
27495;SDS011;14929;51.336;9.416;2023-03-24T10:17:40;1.20;;;0.85;;
27495;SDS011;14929;51.336;9.416;2023-03-24T10:20:16;1.05;;;0.77;;
27495;SDS011;14929;51.336;9.416;2023-03-24T10:22:57;0.80;;;0.80;;
27495;SDS011;14929;51.336;9.416;2023-03-24T10:25:33;1.70;;;1.00;;
27495;SDS011;14929;51.336;9.416;2023-03-24T10:28:10;1.25;;;1.10;;
27495;SDS011;14929;51.336;9.416;2023-03-24T10:30:42;1.73;;;0.70;;
27495;SDS011;14929;51.336;9.416;2023-03-24T10:33:10;1.13;;;0.70;;
27495;SDS011;14929;51.336;9.416;2023-03-24T10:35:39;1.25;;;0.80;;
27495;SDS011;14929;51.336;9.416;2023-03-24T10:38:14;1.23;;;0.98;;
27495;SDS011;14929;51.336;9.416;2023-03-24T10:40:44;1.92;;;0.85;;
27495;SDS011;14929;51.336;9.416;2023-03-24T10:43:14;3.28;;;1.30;;
27495;SDS011;14929;51.336;9.416;2023-03-24T10:45:43;1.00;;;1.00;;
27495;SDS011;14929;51.336;9.416;2023-03-24T10:48:13;0.85;;;0.85;;
27495;SDS011;14929;51.336;9.416;2023-03-24T10:50:56;1.55;;;1.38;;
27495;SDS011;14929;51.336;9.416;2023-03-24T10:53:26;3.47;;;1.52;;
27495;SDS011;14929;51.336;9.416;2023-03-24T10:55:53;2.22;;;0.88;;
27495;SDS011;14929;51.336;9.416;2023-03-24T10:58:25;2.45;;;1.20;;
27495;SDS011;14929;51.336;9.416;2023-03-24T11:00:56;6.47;;;2.67;;
27495;SDS011;14929;51.336;9.416;2023-03-24T11:03:28;2.45;;;1.70;;
27495;SDS011;14929;51.336;9.416;2023-03-24T11:05:57;1.40;;;1.02;;
27495;SDS011;14929;51.336;9.416;2023-03-24T11:08:32;1.17;;;1.08;;
27495;SDS011;14929;51.336;9.416;2023-03-24T11:11:11;1.65;;;1.13;;
27495;SDS011;14929;51.336;9.416;2023-03-24T11:13:41;2.25;;;1.40;;
27495;SDS011;14929;51.336;9.416;2023-03-24T11:16:22;1.33;;;1.23;;
27495;SDS011;14929;51.336;9.416;2023-03-24T11:18:55;1.08;;;1.02;;
27495;SDS011;14929;51.336;9.416;2023-03-24T11:21:25;2.33;;;1.10;;
27495;SDS011;14929;51.336;9.416;2023-03-24T11:23:57;2.00;;;1.10;;
27495;SDS011;14929;51.336;9.416;2023-03-24T11:26:27;0.90;;;0.90;;
27495;SDS011;14929;51.336;9.416;2023-03-24T11:28:58;1.83;;;1.40;;
27495;SDS011;14929;51.336;9.416;2023-03-24T11:31:30;1.35;;;1.00;;
27495;SDS011;14929;51.336;9.416;2023-03-24T11:34:05;5.78;;;3.97;;
27495;SDS011;14929;51.336;9.416;2023-03-24T11:36:36;3.28;;;2.15;;
27495;SDS011;14929;51.336;9.416;2023-03-24T11:39:18;3.25;;;2.90;;
27495;SDS011;14929;51.336;9.416;2023-03-24T11:41:53;3.55;;;1.90;;
27495;SDS011;14929;51.336;9.416;2023-03-24T11:44:31;2.50;;;2.30;;
27495;SDS011;14929;51.336;9.416;2023-03-24T11:47:12;3.08;;;1.52;;
27495;SDS011;14929;51.336;9.416;2023-03-24T11:49:50;1.95;;;1.45;;
27495;SDS011;14929;51.336;9.416;2023-03-24T11:52:24;4.18;;;1.67;;
27495;SDS011;14929;51.336;9.416;2023-03-24T11:54:57;1.48;;;1.30;;
27495;SDS011;14929;51.336;9.416;2023-03-24T11:57:27;4.82;;;2.55;;
27495;SDS011;14929;51.336;9.416;2023-03-24T12:00:12;2.47;;;1.73;;
27495;SDS011;14929;51.336;9.416;2023-03-24T12:02:50;3.13;;;1.98;;
27495;SDS011;14929;51.336;9.416;2023-03-24T12:05:44;2.30;;;2.00;;
27495;SDS011;14929;51.336;9.416;2023-03-24T12:08:18;1.65;;;1.48;;
27495;SDS011;14929;51.336;9.416;2023-03-24T12:10:56;5.43;;;2.80;;
27495;SDS011;14929;51.336;9.416;2023-03-24T12:13:32;1.42;;;1.33;;
27495;SDS011;14929;51.336;9.416;2023-03-24T12:16:09;1.88;;;1.20;;
27495;SDS011;14929;51.336;9.416;2023-03-24T12:18:54;2.38;;;1.70;;
27495;SDS011;14929;51.336;9.416;2023-03-24T12:21:45;3.45;;;2.03;;
27495;SDS011;14929;51.336;9.416;2023-03-24T12:24:30;2.10;;;1.55;;
27495;SDS011;14929;51.336;9.416;2023-03-24T12:27:17;3.17;;;1.65;;
27495;SDS011;14929;51.336;9.416;2023-03-24T12:29:53;2.92;;;1.50;;
27495;SDS011;14929;51.336;9.416;2023-03-24T12:35:19;1.67;;;1.58;;
27495;SDS011;14929;51.336;9.416;2023-03-24T12:37:59;1.67;;;1.35;;
27495;SDS011;14929;51.336;9.416;2023-03-24T12:43:36;1.38;;;1.20;;
27495;SDS011;14929;51.336;9.416;2023-03-24T12:46:17;1.40;;;1.30;;
27495;SDS011;14929;51.336;9.416;2023-03-24T12:49:06;2.67;;;1.60;;
27495;SDS011;14929;51.336;9.416;2023-03-24T12:51:56;1.00;;;0.90;;
27495;SDS011;14929;51.336;9.416;2023-03-24T12:54:42;1.83;;;1.50;;
27495;SDS011;14929;51.336;9.416;2023-03-24T12:57:17;1.95;;;1.45;;
27495;SDS011;14929;51.336;9.416;2023-03-24T12:59:49;2.08;;;1.55;;
27495;SDS011;14929;51.336;9.416;2023-03-24T13:02:23;2.97;;;1.80;;
27495;SDS011;14929;51.336;9.416;2023-03-24T13:04:56;3.38;;;2.45;;
27495;SDS011;14929;51.336;9.416;2023-03-24T13:07:29;4.50;;;2.40;;
27495;SDS011;14929;51.336;9.416;2023-03-24T13:10:02;2.95;;;1.73;;
27495;SDS011;14929;51.336;9.416;2023-03-24T13:12:39;1.40;;;1.30;;
27495;SDS011;14929;51.336;9.416;2023-03-24T13:15:14;1.50;;;1.40;;
27495;SDS011;14929;51.336;9.416;2023-03-24T13:17:46;1.50;;;1.40;;
27495;SDS011;14929;51.336;9.416;2023-03-24T13:20:20;2.47;;;1.55;;
27495;SDS011;14929;51.336;9.416;2023-03-24T13:22:53;2.95;;;1.98;;
27495;SDS011;14929;51.336;9.416;2023-03-24T13:25:24;2.38;;;2.00;;
27495;SDS011;14929;51.336;9.416;2023-03-24T13:28:09;2.15;;;1.95;;
27495;SDS011;14929;51.336;9.416;2023-03-24T13:30:40;3.85;;;1.85;;
27495;SDS011;14929;51.336;9.416;2023-03-24T13:33:10;3.45;;;1.58;;
27495;SDS011;14929;51.336;9.416;2023-03-24T13:35:47;1.88;;;1.70;;
27495;SDS011;14929;51.336;9.416;2023-03-24T13:38:26;1.77;;;1.67;;
27495;SDS011;14929;51.336;9.416;2023-03-24T13:41:01;1.92;;;1.35;;
27495;SDS011;14929;51.336;9.416;2023-03-24T13:43:31;1.65;;;1.45;;
27495;SDS011;14929;51.336;9.416;2023-03-24T13:46:02;1.60;;;1.23;;
27495;SDS011;14929;51.336;9.416;2023-03-24T13:48:32;1.73;;;1.63;;
27495;SDS011;14929;51.336;9.416;2023-03-24T13:51:03;4.10;;;1.63;;
27495;SDS011;14929;51.336;9.416;2023-03-24T13:53:34;1.52;;;1.23;;
27495;SDS011;14929;51.336;9.416;2023-03-24T13:56:04;1.30;;;1.10;;
27495;SDS011;14929;51.336;9.416;2023-03-24T13:58:43;1.38;;;1.25;;
27495;SDS011;14929;51.336;9.416;2023-03-24T14:01:32;3.90;;;1.38;;
27495;SDS011;14929;51.336;9.416;2023-03-24T14:04:22;0.93;;;0.93;;
27495;SDS011;14929;51.336;9.416;2023-03-24T14:06:53;5.15;;;1.33;;
27495;SDS011;14929;51.336;9.416;2023-03-24T14:09:23;2.67;;;1.48;;
27495;SDS011;14929;51.336;9.416;2023-03-24T14:15:02;2.47;;;1.42;;
27495;SDS011;14929;51.336;9.416;2023-03-24T14:17:43;2.92;;;1.30;;
27495;SDS011;14929;51.336;9.416;2023-03-24T14:23:00;2.30;;;1.33;;
27495;SDS011;14929;51.336;9.416;2023-03-24T14:25:29;2.88;;;1.73;;
27495;SDS011;14929;51.336;9.416;2023-03-24T14:28:09;1.52;;;1.10;;
27495;SDS011;14929;51.336;9.416;2023-03-24T14:30:54;2.33;;;1.33;;
27495;SDS011;14929;51.336;9.416;2023-03-24T14:33:28;4.32;;;1.58;;
27495;SDS011;14929;51.336;9.416;2023-03-24T14:35:56;1.63;;;0.95;;
27495;SDS011;14929;51.336;9.416;2023-03-24T14:38:29;2.67;;;1.85;;
27495;SDS011;14929;51.336;9.416;2023-03-24T14:41:05;3.60;;;2.80;;
27495;SDS011;14929;51.336;9.416;2023-03-24T14:43:51;1.95;;;1.80;;
27495;SDS011;14929;51.336;9.416;2023-03-24T14:46:40;2.95;;;1.42;;
27495;SDS011;14929;51.336;9.416;2023-03-24T14:49:23;1.58;;;1.45;;
27495;SDS011;14929;51.336;9.416;2023-03-24T14:51:58;1.48;;;1.00;;
27495;SDS011;14929;51.336;9.416;2023-03-24T14:54:28;2.22;;;1.20;;
27495;SDS011;14929;51.336;9.416;2023-03-24T14:57:02;4.00;;;1.10;;
27495;SDS011;14929;51.336;9.416;2023-03-24T14:59:36;1.60;;;1.10;;
27495;SDS011;14929;51.336;9.416;2023-03-24T15:02:21;1.15;;;0.90;;
27495;SDS011;14929;51.336;9.416;2023-03-24T15:08:00;2.72;;;0.93;;
27495;SDS011;14929;51.336;9.416;2023-03-24T15:10:47;1.05;;;1.00;;
27495;SDS011;14929;51.336;9.416;2023-03-24T15:13:29;1.70;;;1.00;;
27495;SDS011;14929;51.336;9.416;2023-03-24T15:16:00;2.42;;;1.10;;
27495;SDS011;14929;51.336;9.416;2023-03-24T15:18:31;1.52;;;1.10;;
27495;SDS011;14929;51.336;9.416;2023-03-24T15:21:00;1.73;;;0.95;;
27495;SDS011;14929;51.336;9.416;2023-03-24T15:23:44;0.95;;;0.80;;
27495;SDS011;14929;51.336;9.416;2023-03-24T15:26:13;2.45;;;1.50;;
27495;SDS011;14929;51.336;9.416;2023-03-24T15:28:42;1.33;;;0.88;;
27495;SDS011;14929;51.336;9.416;2023-03-24T15:31:10;3.30;;;1.30;;
27495;SDS011;14929;51.336;9.416;2023-03-24T15:33:38;1.20;;;0.90;;
27495;SDS011;14929;51.336;9.416;2023-03-24T15:36:14;2.55;;;1.55;;
27495;SDS011;14929;51.336;9.416;2023-03-24T15:38:46;1.65;;;1.13;;
27495;SDS011;14929;51.336;9.416;2023-03-24T15:41:16;1.80;;;1.10;;
27495;SDS011;14929;51.336;9.416;2023-03-24T15:43:46;1.95;;;1.73;;
27495;SDS011;14929;51.336;9.416;2023-03-24T15:46:24;2.22;;;1.30;;